createdAt,value
2022-09-20T00:03:07.330Z,0.8
2022-09-20T00:08:50.822Z,0.7
2022-09-20T00:14:34.142Z,0.9
2022-09-20T00:20:17.569Z,0.8
2022-09-20T00:26:02.650Z,0.7
2022-09-20T00:31:46.031Z,0.8
2022-09-20T00:37:29.239Z,0.8
2022-09-20T00:43:14.990Z,0.6
2022-09-20T00:49:00.914Z,0.6
2022-09-20T00:54:44.495Z,0.7
2022-09-20T01:00:28.694Z,0.8
2022-09-20T01:06:14.578Z,0.8
2022-09-20T01:11:58.811Z,0.7
2022-09-20T01:17:44.305Z,0.9
2022-09-20T01:23:32.944Z,0.7
2022-09-20T01:29:23.301Z,0.7
2022-09-20T01:35:08.381Z,0.8
2022-09-20T01:40:56.873Z,0.7
2022-09-20T01:46:42.917Z,0.8
2022-09-20T01:52:52.571Z,0.7
2022-09-20T01:59:12.717Z,0.6
2022-09-20T02:05:00.042Z,0.6
2022-09-20T02:10:58.116Z,0.7
2022-09-20T02:16:52.152Z,0.7
2022-09-20T02:22:42.008Z,0.7
2022-09-20T02:28:31.987Z,0.8
2022-09-20T02:34:38.930Z,0.7
2022-09-20T02:40:28.487Z,0.8
2022-09-20T02:46:15.596Z,1
2022-09-20T02:52:01.946Z,0.7
2022-09-20T02:57:51.946Z,0.8
2022-09-20T03:03:39.753Z,0.9
2022-09-20T03:09:27.320Z,0.8
2022-09-20T03:15:17.637Z,0.9
2022-09-20T03:21:05.988Z,1
2022-09-20T03:26:54.242Z,1.2
2022-09-20T03:32:47.082Z,1.1
2022-09-20T03:38:38.958Z,1.2
2022-09-20T03:44:35.642Z,1.2
2022-09-20T03:50:32.920Z,1.6
2022-09-20T03:56:36.262Z,1.8
2022-09-20T04:02:31.362Z,1.5
2022-09-20T04:08:19.339Z,1.4
2022-09-20T04:14:13.551Z,1.5
2022-09-20T04:20:01.262Z,1.6
2022-09-20T04:25:48.095Z,1.7
2022-09-20T04:31:38.145Z,1.5
2022-09-20T04:37:26.258Z,1.5
2022-09-20T04:43:18.683Z,1.5
2022-09-20T04:49:27.098Z,1.7
2022-09-20T04:55:21.569Z,1.5
2022-09-20T05:01:16.987Z,2
2022-09-20T05:07:11.641Z,1.7
2022-09-20T05:13:06.474Z,2.1
2022-09-20T05:19:03.899Z,1.7
2022-09-20T05:24:55.225Z,1.8
2022-09-20T05:30:42.723Z,2.1
2022-09-20T05:36:35.921Z,2
2022-09-20T05:42:22.583Z,2.2
2022-09-20T05:48:10.846Z,2.5
2022-09-20T05:54:01.997Z,2.1
2022-09-20T05:59:52.286Z,2.4
2022-09-20T06:05:42.977Z,2.6
2022-09-20T06:11:33.769Z,2.3
2022-09-20T06:17:24.067Z,2.5
2022-09-20T06:23:07.542Z,2.7
2022-09-20T06:28:59.258Z,2.7
2022-09-20T06:34:42.526Z,3.3
2022-09-20T06:40:32.964Z,2.4
2022-09-20T06:46:16.381Z,2.5
2022-09-20T06:51:59.437Z,2.7
2022-09-20T06:57:42.654Z,2.9
2022-09-20T07:03:25.976Z,2.9
2022-09-20T07:09:09.255Z,2.9
2022-09-20T07:14:52.594Z,2.9
2022-09-20T07:20:36.035Z,2.8
2022-09-20T07:26:22.514Z,2.9
2022-09-20T07:32:06.037Z,2.9
2022-09-20T07:37:49.426Z,3
2022-09-20T07:43:33.095Z,3
2022-09-20T07:49:17.222Z,2.9
2022-09-20T07:55:00.715Z,2.8
2022-09-20T08:00:44.101Z,2.8
2022-09-20T08:06:27.226Z,2.6
2022-09-20T08:18:14.894Z,2.5
2022-09-20T08:23:58.665Z,2.5
2022-09-20T08:29:41.792Z,2.2
2022-09-20T08:35:25.097Z,2.3
2022-09-20T08:41:12.406Z,2.2
2022-09-20T08:47:00.502Z,2.4
2022-09-20T08:52:46.515Z,1.8
2022-09-20T08:58:30.014Z,1.8
2022-09-20T09:04:16.967Z,1.9
2022-09-20T09:10:00.180Z,1.8
2022-09-20T09:15:45.110Z,1.7
2022-09-20T09:21:30.002Z,1.6
2022-09-20T09:27:15.994Z,1.7
2022-09-20T09:33:04.774Z,1.4
2022-09-20T09:38:48.086Z,1.4
2022-09-20T09:44:31.835Z,1.4
2022-09-20T09:50:20.028Z,1.2
2022-09-20T09:56:16.178Z,1.4
2022-09-20T10:02:03.828Z,1.2
2022-09-20T10:07:50.673Z,1.3
2022-09-20T10:13:42.287Z,1.1
2022-09-20T10:19:30.535Z,1.2
2022-09-20T10:25:19.434Z,1.2
2022-09-20T10:31:08.747Z,1.1
2022-09-20T10:36:54.711Z,1.1
2022-09-20T10:42:42.495Z,1.1
2022-09-20T10:48:30.318Z,1
2022-09-20T10:54:17.866Z,1
2022-09-20T11:00:06.843Z,1
2022-09-20T11:05:56.939Z,1.2
2022-09-20T11:11:43.230Z,1.2
2022-09-20T11:17:29.130Z,1.2
2022-09-20T11:23:16.395Z,1.1
2022-09-20T11:29:03.475Z,1.1
2022-09-20T11:34:51.145Z,1
2022-09-20T11:40:36.825Z,1.2
2022-09-20T11:46:23.594Z,1.3
2022-09-20T11:52:33.758Z,1.1
2022-09-20T11:58:17.957Z,1.2
2022-09-20T12:04:31.620Z,1.1
2022-09-20T12:10:08.455Z,1.2
2022-09-20T12:15:57.025Z,1.2
2022-09-20T12:21:51.599Z,1.1
2022-09-20T12:27:45.666Z,1.3
2022-09-20T12:33:33.894Z,1.3
2022-09-20T12:39:31.254Z,1.1
2022-09-20T12:45:19.444Z,1.3
2022-09-20T12:51:11.786Z,1.2
2022-09-20T12:56:56.163Z,1.2
2022-09-20T13:02:50.853Z,1
2022-09-20T13:08:36.633Z,1.1
2022-09-20T13:14:21.962Z,1.1
2022-09-20T13:20:05.379Z,1
2022-09-20T13:25:50.036Z,1
2022-09-20T13:31:34.614Z,1
2022-09-20T13:37:20.654Z,1
2022-09-20T13:43:23.461Z,0.9
2022-09-20T13:49:16.227Z,0.9
2022-09-20T13:54:59.543Z,1
2022-09-20T14:00:46.966Z,0.9
2022-09-20T14:06:30.719Z,1
2022-09-20T14:12:14.286Z,1.1
2022-09-20T14:17:57.985Z,1
2022-09-20T14:23:53.037Z,1
2022-09-20T14:29:42.038Z,1
2022-09-20T14:35:26.263Z,0.9
2022-09-20T14:41:09.689Z,1
2022-09-20T14:46:53.746Z,1
2022-09-20T14:52:38.503Z,0.8
2022-09-20T14:58:21.881Z,0.9
2022-09-20T15:04:07.824Z,1.1
2022-09-20T15:09:51.099Z,0.9
2022-09-20T15:15:34.917Z,0.9
2022-09-20T15:21:18.984Z,0.8
2022-09-20T15:27:02.260Z,0.9
2022-09-20T15:32:46.314Z,0.8
2022-09-20T15:38:29.655Z,0.9
2022-09-20T15:44:12.972Z,1
2022-09-20T15:49:56.242Z,0.8
2022-09-20T15:55:41.643Z,0.9
2022-09-20T16:01:25.095Z,1.1
2022-09-20T16:07:08.814Z,1.1
2022-09-20T16:12:51.843Z,1
2022-09-20T16:18:37.003Z,1.2
2022-09-20T16:24:20.366Z,1.2
2022-09-20T16:30:04.737Z,1.3
2022-09-20T16:35:48.059Z,2.1
2022-09-20T16:41:31.427Z,3.7
2022-09-20T16:47:16.136Z,4.1
2022-09-20T16:53:00.454Z,4.1
2022-09-20T16:58:44.424Z,4.4
2022-09-20T17:04:28.105Z,4.1
2022-09-20T17:10:11.873Z,3.7
2022-09-20T17:16:00.315Z,3.5
2022-09-20T17:21:44.880Z,3.2
2022-09-20T17:27:28.243Z,3.1
2022-09-20T17:33:13.756Z,2.7
2022-09-20T17:39:05.590Z,2.8
2022-09-20T17:44:48.855Z,3.1
2022-09-20T17:50:32.186Z,3.1
2022-09-20T17:56:15.713Z,2.8
2022-09-20T18:01:58.927Z,2.8
2022-09-20T18:07:42.111Z,2.8
2022-09-20T18:13:25.838Z,2.7
2022-09-20T18:19:10.465Z,2.9
2022-09-20T18:24:53.605Z,2.6
2022-09-20T18:30:38.613Z,2.7
2022-09-20T18:36:23.182Z,2.6
2022-09-20T18:42:08.134Z,2.5
2022-09-20T18:47:51.690Z,2.3
2022-09-20T18:53:37.995Z,2.3
2022-09-20T18:59:22.942Z,2.3
2022-09-20T19:05:12.540Z,2.3
2022-09-20T19:11:01.363Z,2
2022-09-20T19:16:48.208Z,2
2022-09-20T19:22:36.228Z,2.1
2022-09-20T19:28:23.356Z,1.9
2022-09-20T19:34:13.433Z,1.8
2022-09-20T19:40:05.444Z,2
2022-09-20T19:45:52.607Z,2
2022-09-20T19:51:38.305Z,2
2022-09-20T19:57:24.895Z,2
2022-09-20T20:03:09.975Z,1.9
2022-09-20T20:08:57.391Z,1.9
2022-09-20T20:14:47.469Z,2.2
2022-09-20T20:20:37.727Z,1.9
2022-09-20T20:26:23.267Z,2
2022-09-20T20:32:06.663Z,2
2022-09-20T20:37:49.899Z,2
2022-09-20T20:43:34.770Z,2.1
2022-09-20T20:49:18.081Z,2.2
2022-09-20T20:55:01.240Z,2.2
2022-09-20T21:00:45.411Z,2.3
2022-09-20T21:06:29.733Z,2.3
2022-09-20T21:12:12.981Z,2
2022-09-20T21:17:56.415Z,2.3
2022-09-20T21:23:39.468Z,2.4
2022-09-20T21:29:22.652Z,2.5
2022-09-20T21:35:06.029Z,2.2
2022-09-20T21:40:49.178Z,2.2
2022-09-20T21:46:33.342Z,2.4
2022-09-20T21:52:16.639Z,2.5
2022-09-20T21:57:59.902Z,2.5
2022-09-20T22:03:43.982Z,2.7
2022-09-20T22:09:27.283Z,2.4
2022-09-20T22:15:11.162Z,2.7
2022-09-20T22:20:59.221Z,2.8
2022-09-20T22:26:43.508Z,2.7
2022-09-20T22:32:26.734Z,2.7
2022-09-20T22:38:10.010Z,2.9
2022-09-20T22:43:53.274Z,2.9
2022-09-20T22:49:36.597Z,2.9
2022-09-20T22:55:19.891Z,2.6
2022-09-20T23:01:08.914Z,2.7
2022-09-20T23:06:53.734Z,2.7
2022-09-20T23:12:36.830Z,2.8
2022-09-20T23:18:20.181Z,2.5
2022-09-20T23:24:04.141Z,2.8
2022-09-20T23:29:47.639Z,2.7
2022-09-20T23:35:30.854Z,2.8
2022-09-20T23:41:14.910Z,3
2022-09-20T23:46:58.189Z,3.1
2022-09-20T23:52:41.410Z,3.2
2022-09-20T23:58:24.546Z,3.1
